Station Historical Data
 
Daily Summary for December 15, 2017 Units:  Metric    English   Both
« Previous Day
Next Day »
Daily Weekly Monthly Yearly Custom
  Current: High: Low: Average:
Temperature: 1.9 °C 2.5 °C 1.3 °C 1.9 °C
Dew Point: 1.2 °C 2.5 °C 0.6 °C 1.2 °C
Humidity: 95 % 100 % 93 % 95 %
Wind Speed: 18.5 km/h 20.9 km/h 0.0 km/h 8.2 km/h
Wind Gust: 18.5 km/h 24.1 km/h - -
Wind:WNW - - SSW
Pressure: 999.9 hPa 1000.9 hPa 997.5 hPa -
Precipitation: 0.0 mm      
Historical Graphs
 
 
Tabular Data for December 15, 2017
Time Temperature Dew Point Pressure Wind Wind Speed Wind Gust Humidity Rainfall Rate (Hourly) solar Conditions
00:01 1.9 °C 0.9 °C 1000.6 hPa NNE 3.7 km/h 3.7 km/h 93 % 0.0 mm 0.0 W/m2 CLR
00:06 1.9 °C 0.9 °C 1000.9 hPa NNE 3.7 km/h 3.7 km/h 93 % 0.0 mm 0.0 W/m2 SCT
00:11 1.9 °C 0.9 °C 1000.6 hPa NNE 5.6 km/h 5.6 km/h 93 % 0.0 mm 0.0 W/m2 SCT
00:16 2.0 °C 1.0 °C 1000.6 hPa NNE 5.6 km/h 5.6 km/h 93 % 0.0 mm 0.0 W/m2 SCT
00:21 2.1 °C 1.2 °C 1000.6 hPa NNE 5.6 km/h 5.6 km/h 94 % 0.0 mm 0.0 W/m2 SCT
00:26 2.1 °C 1.2 °C 1000.6 hPa NNE 3.7 km/h 3.7 km/h 94 % 0.0 mm 0.0 W/m2 SCT
00:31 2.2 °C 1.3 °C 1000.2 hPa NE 6.4 km/h 6.4 km/h 94 % 0.0 mm 0.0 W/m2 SCT
00:36 2.2 °C 1.3 °C 1000.2 hPa NNW 5.6 km/h 5.6 km/h 94 % 0.0 mm 0.0 W/m2 BKN
00:41 2.2 °C 1.3 °C 999.9 hPa NE 6.4 km/h 6.4 km/h 94 % 0.0 mm 0.0 W/m2 BKN
00:46 2.2 °C 1.3 °C 1000.2 hPa NE 6.4 km/h 6.4 km/h 94 % 0.0 mm 0.0 W/m2 BKN
00:51 2.2 °C 1.3 °C 1000.2 hPa North 3.7 km/h 3.7 km/h 94 % 0.0 mm 0.0 W/m2 BKN
00:56 2.2 °C 1.3 °C 1000.2 hPa Calm     94 % 0.0 mm 0.0 W/m2 BKN
01:02 2.2 °C 1.3 °C 999.9 hPa Calm     94 % 0.0 mm 0.0 W/m2 BKN
01:07 2.2 °C 1.3 °C 999.9 hPa Calm     94 % 0.0 mm 0.0 W/m2 BKN
01:12 2.3 °C 1.4 °C 999.5 hPa NE 5.6 km/h 5.6 km/h 94 % 0.0 mm 0.0 W/m2 BKN
01:17 2.3 °C 1.4 °C 999.5 hPa Calm     94 % 0.0 mm 0.0 W/m2 BKN
01:22 2.3 °C 1.4 °C 999.5 hPa NE 1.9 km/h 1.9 km/h 94 % 0.0 mm 0.0 W/m2 BKN
01:27 2.3 °C 1.4 °C 999.5 hPa SSE 5.6 km/h 5.6 km/h 94 % 0.0 mm 0.0 W/m2 BKN
01:33 2.3 °C 1.4 °C 999.5 hPa SSE 1.9 km/h 1.9 km/h 94 % 0.0 mm 0.0 W/m2 BKN
01:38 2.3 °C 1.4 °C 999.5 hPa Calm     94 % 0.0 mm 0.0 W/m2 BKN
01:43 2.3 °C 1.4 °C 999.2 hPa Calm     94 % 0.0 mm 0.0 W/m2 BKN
01:48 2.3 °C 1.4 °C 999.2 hPa SE 5.6 km/h 5.6 km/h 94 % 0.0 mm 0.0 W/m2 BKN
01:53 2.3 °C 1.4 °C 999.2 hPa East 8.0 km/h 8.0 km/h 94 % 0.0 mm 0.0 W/m2 BKN
01:58 2.4 °C 1.5 °C 999.2 hPa SW 3.7 km/h 3.7 km/h 94 % 0.0 mm 0.0 W/m2 BKN
02:03 2.4 °C 1.6 °C 999.2 hPa SW 9.7 km/h 9.7 km/h 94 % 0.0 mm 0.0 W/m2 SCT
02:08 2.4 °C 1.6 °C 999.2 hPa North 6.4 km/h 6.4 km/h 94 % 0.0 mm 0.0 W/m2 SCT
02:13 2.5 °C 1.8 °C 999.2 hPa SE 5.6 km/h 5.6 km/h 95 % 0.0 mm 0.0 W/m2 SCT
02:18 2.5 °C 2.5 °C 999.2 hPa NW 5.6 km/h 5.6 km/h 100 % 0.0 mm 0.0 W/m2 SCT
02:24 2.5 °C 1.6 °C 998.9 hPa ENE 5.6 km/h 5.6 km/h 94 % 0.0 mm 0.0 W/m2 SCT
02:29 2.4 °C 1.6 °C 999.2 hPa NE 1.9 km/h   94 % 0.0 mm 0.0 W/m2 SCT
02:34 2.4 °C 1.6 °C 998.9 hPa NNE 4.8 km/h 4.8 km/h 94 % 0.0 mm 0.0 W/m2 SCT
02:39 2.4 °C 1.6 °C 998.9 hPa NE 5.6 km/h 5.6 km/h 94 % 0.0 mm 0.0 W/m2 SCT
02:44 2.4 °C 1.5 °C 998.9 hPa ENE 1.9 km/h 1.9 km/h 94 % 0.0 mm 0.0 W/m2 SCT
02:49 2.4 °C 1.5 °C 998.9 hPa ENE 4.8 km/h 4.8 km/h 94 % 0.0 mm 0.0 W/m2 SCT
02:54 2.4 °C 1.5 °C 998.5 hPa NE 1.9 km/h   94 % 0.0 mm 0.0 W/m2 SCT
02:59 2.4 °C 1.7 °C 998.5 hPa ENE 11.3 km/h 11.3 km/h 95 % 0.0 mm 0.0 W/m2 SCT
03:04 2.4 °C 1.7 °C 998.5 hPa NE 5.6 km/h 5.6 km/h 95 % 0.0 mm 0.0 W/m2 CLR
03:09 2.3 °C 1.6 °C 998.5 hPa NE 5.6 km/h 5.6 km/h 95 % 0.0 mm 0.0 W/m2 CLR
03:14 2.3 °C 1.6 °C 998.5 hPa NE 1.6 km/h   95 % 0.0 mm 0.0 W/m2 CLR
03:19 2.3 °C 1.6 °C 998.5 hPa NNE 5.6 km/h 5.6 km/h 95 % 0.0 mm 0.0 W/m2 CLR
03:24 2.3 °C 1.6 °C 998.5 hPa North 8.0 km/h 8.0 km/h 95 % 0.0 mm 0.0 W/m2 CLR
03:29 2.3 °C 1.6 °C 998.5 hPa ENE 5.6 km/h 5.6 km/h 95 % 0.0 mm 0.0 W/m2 CLR
03:34 2.2 °C 1.5 °C 998.2 hPa NE 4.8 km/h 4.8 km/h 95 % 0.0 mm 0.0 W/m2 CLR
03:39 2.3 °C 1.6 °C 998.2 hPa NE 8.0 km/h 8.0 km/h 95 % 0.0 mm 0.0 W/m2 CLR
03:44 2.3 °C 1.6 °C 998.2 hPa ENE 1.9 km/h 1.9 km/h 95 % 0.0 mm 0.0 W/m2 CLR
03:50 2.3 °C 1.6 °C 998.2 hPa NE 1.9 km/h 1.9 km/h 95 % 0.0 mm 0.0 W/m2 CLR
03:55 2.3 °C 1.6 °C 998.2 hPa NE 1.6 km/h 3.2 km/h 95 % 0.0 mm 0.0 W/m2 CLR
04:00 2.2 °C 1.5 °C 998.2 hPa Calm   1.6 km/h 95 % 0.0 mm 0.0 W/m2 CLR
04:05 2.2 °C 1.5 °C 998.2 hPa Calm   1.6 km/h 95 % 0.0 mm 0.0 W/m2 CLR
04:10 2.2 °C 1.4 °C 998.2 hPa NNE 1.6 km/h 4.8 km/h 95 % 0.0 mm 0.0 W/m2 CLR
04:15 2.2 °C 1.4 °C 998.2 hPa Calm   4.8 km/h 95 % 0.0 mm 0.0 W/m2 CLR
04:20 2.2 °C 1.4 °C 997.9 hPa Calm   4.8 km/h 95 % 0.0 mm 0.0 W/m2 CLR
04:25 2.1 °C 1.4 °C 997.5 hPa Calm   1.6 km/h 95 % 0.0 mm 0.0 W/m2 CLR
04:30 2.0 °C 1.3 °C 997.5 hPa Calm   3.2 km/h 95 % 0.0 mm 0.0 W/m2 CLR
04:35 1.9 °C 1.2 °C 997.5 hPa Calm   3.2 km/h 95 % 0.0 mm 0.0 W/m2 CLR
04:40 1.8 °C 1.1 °C 997.5 hPa Calm   1.6 km/h 95 % 0.0 mm 0.0 W/m2 CLR
04:45 1.8 °C 1.1 °C 997.5 hPa Calm   1.6 km/h 95 % 0.0 mm 0.0 W/m2 CLR
04:50 1.7 °C 1.0 °C 997.5 hPa Calm     95 % 0.0 mm 0.0 W/m2 CLR
04:55 1.7 °C 0.9 °C 997.5 hPa Calm   1.6 km/h 95 % 0.0 mm 0.0 W/m2 CLR
05:00 1.6 °C 0.9 °C 997.5 hPa Calm   3.2 km/h 95 % 0.0 mm 0.0 W/m2 CLR
05:05 1.6 °C 0.8 °C 997.5 hPa WNW 1.6 km/h 3.2 km/h 95 % 0.0 mm 0.0 W/m2 CLR
05:10 1.6 °C 0.9 °C 997.5 hPa Calm   3.2 km/h 95 % 0.0 mm 0.0 W/m2 CLR
05:15 1.7 °C 0.9 °C 997.9 hPa WNW 1.6 km/h 4.8 km/h 95 % 0.0 mm 0.0 W/m2 CLR
05:20 1.7 °C 1.0 °C 997.9 hPa West 1.6 km/h 4.8 km/h 95 % 0.0 mm 0.0 W/m2 CLR
05:25 1.8 °C 1.1 °C 997.9 hPa WNW 4.8 km/h 4.8 km/h 95 % 0.0 mm 0.0 W/m2 CLR
05:30 1.8 °C 1.1 °C 997.5 hPa West 5.6 km/h 5.6 km/h 95 % 0.0 mm 0.0 W/m2 CLR
05:37 1.8 °C 1.1 °C 997.9 hPa WNW 9.7 km/h 9.7 km/h 95 % 0.0 mm 0.0 W/m2 CLR
05:42 1.7 °C 1.0 °C 997.9 hPa WNW 8.0 km/h 8.0 km/h 95 % 0.0 mm 0.0 W/m2 CLR
05:47 1.7 °C 1.0 °C 997.9 hPa NW 1.9 km/h 1.9 km/h 95 % 0.0 mm 0.0 W/m2 CLR
05:52 1.8 °C 1.1 °C 997.9 hPa NNW 8.0 km/h 8.0 km/h 95 % 0.0 mm 0.0 W/m2 CLR
05:57 1.8 °C 1.1 °C 997.9 hPa NW 9.7 km/h 9.7 km/h 95 % 0.0 mm 0.0 W/m2 CLR
06:02 1.9 °C 1.2 °C 997.9 hPa WNW 9.7 km/h 9.7 km/h 95 % 0.0 mm 0.0 W/m2 SCT
06:04 2.0 °C 1.3 °C 998.2 hPa West 7.4 km/h 7.4 km/h 95 % 0.0 mm 0.0 W/m2 SCT
06:09 2.1 °C 1.3 °C 997.9 hPa NW 9.3 km/h 9.3 km/h 95 % 0.0 mm 0.0 W/m2 SCT
06:14 2.1 °C 1.3 °C 998.2 hPa WSW 11.3 km/h 11.3 km/h 95 % 0.0 mm 0.0 W/m2 SCT
06:20 2.0 °C 1.3 °C 998.2 hPa West 4.8 km/h 11.3 km/h 95 % 0.0 mm 0.0 W/m2 SCT
06:25 2.1 °C 1.3 °C 998.2 hPa West 8.0 km/h 9.7 km/h 95 % 0.0 mm 0.0 W/m2 SCT
06:30 2.1 °C 1.3 °C 998.2 hPa WSW 4.8 km/h 11.3 km/h 95 % 0.0 mm 0.0 W/m2 SCT
06:35 1.9 °C 1.2 °C 998.5 hPa WSW 9.7 km/h 9.7 km/h 95 % 0.0 mm 0.0 W/m2 FEW
06:40 1.8 °C 1.1 °C 998.5 hPa SW 9.7 km/h 9.7 km/h 95 % 0.0 mm 0.0 W/m2 FEW
06:45 1.6 °C 0.9 °C 998.5 hPa WSW 11.3 km/h 11.3 km/h 95 % 0.0 mm 0.0 W/m2 FEW
06:50 1.5 °C 0.8 °C 998.5 hPa WSW 17.7 km/h 17.7 km/h 95 % 0.0 mm 0.0 W/m2 FEW
06:55 1.4 °C 0.7 °C 998.5 hPa SW 14.8 km/h 14.8 km/h 95 % 0.0 mm 0.0 W/m2 FEW
07:00 1.4 °C 0.7 °C 998.5 hPa SW 16.7 km/h 16.7 km/h 95 % 0.0 mm 0.0 W/m2 FEW
07:05 1.4 °C 0.7 °C 998.5 hPa SSW 11.3 km/h 11.3 km/h 95 % 0.0 mm 0.0 W/m2 SCT
07:10 1.5 °C 0.8 °C 998.5 hPa WSW 13.0 km/h 13.0 km/h 95 % 0.0 mm 0.0 W/m2 SCT
07:15 1.6 °C 0.9 °C 998.9 hPa SW 13.0 km/h 13.0 km/h 95 % 0.0 mm 0.0 W/m2 SCT
07:20 1.7 °C 1.0 °C 998.9 hPa SW 11.3 km/h 11.3 km/h 95 % 0.0 mm 0.0 W/m2 SCT
07:21 1.7 °C 1.0 °C 998.9 hPa SW 9.7 km/h 9.7 km/h 95 % 0.0 mm 0.0 W/m2 SCT
07:26 1.8 °C 1.1 °C 998.9 hPa SW 12.9 km/h 12.9 km/h 95 % 0.0 mm 0.0 W/m2 SCT
07:32 1.9 °C 1.2 °C 998.9 hPa West 11.3 km/h 11.3 km/h 95 % 0.0 mm 0.0 W/m2 SCT
07:37 2.0 °C 1.3 °C 998.9 hPa WSW 13.0 km/h 13.0 km/h 95 % 0.0 mm 0.0 W/m2 SCT
07:42 2.1 °C 1.3 °C 998.5 hPa SW 12.9 km/h 12.9 km/h 95 % 0.0 mm 0.0 W/m2 SCT
07:47 2.1 °C 1.3 °C 998.5 hPa SW 7.4 km/h 7.4 km/h 95 % 0.0 mm 0.0 W/m2 SCT
07:52 2.0 °C 1.3 °C 998.9 hPa SW 13.0 km/h 13.0 km/h 95 % 0.0 mm 0.0 W/m2 SCT
07:57 1.9 °C 1.2 °C 998.9 hPa West 18.5 km/h 18.5 km/h 95 % 0.0 mm 0.0 W/m2 SCT
08:02 1.7 °C 1.0 °C 998.9 hPa West 20.9 km/h 20.9 km/h 95 % 0.0 mm 0.0 W/m2 SCT
08:07 1.5 °C 0.8 °C 998.9 hPa West 16.1 km/h 16.1 km/h 95 % 0.0 mm 0.0 W/m2 SCT
08:12 1.4 °C 0.7 °C 999.2 hPa WSW 18.5 km/h 18.5 km/h 95 % 0.0 mm 0.0 W/m2 SCT
08:17 1.3 °C 0.6 °C 999.2 hPa WSW 14.8 km/h 14.8 km/h 95 % 0.0 mm 0.0 W/m2 SCT
08:22 1.3 °C 0.6 °C 999.2 hPa SW 20.9 km/h 20.9 km/h 95 % 0.0 mm 0.0 W/m2 SCT
08:28 1.3 °C 0.6 °C 999.2 hPa WSW 18.5 km/h 18.5 km/h 95 % 0.0 mm 5.0 W/m2 SCT
08:33 1.3 °C 0.6 °C 999.2 hPa SW 16.7 km/h 16.7 km/h 95 % 0.0 mm 9.0 W/m2 SCT
08:39 1.3 °C 0.6 °C 999.2 hPa WSW 16.7 km/h 16.7 km/h 95 % 0.0 mm 12.0 W/m2 SCT
08:45 1.3 °C 0.6 °C 999.2 hPa WSW 18.5 km/h 18.5 km/h 95 % 0.0 mm 19.0 W/m2 SCT
08:50 1.3 °C 0.6 °C 999.2 hPa WSW 8.0 km/h 19.3 km/h 95 % 0.0 mm 25.0 W/m2 SCT
08:55 1.3 °C 0.6 °C 999.2 hPa WSW 9.7 km/h 24.1 km/h 95 % 0.0 mm 26.0 W/m2 SCT
09:00 1.4 °C 0.7 °C 999.5 hPa WSW 12.9 km/h 20.9 km/h 95 % 0.0 mm 30.0 W/m2 SCT
09:05 1.4 °C 0.7 °C 999.5 hPa West 11.3 km/h 19.3 km/h 95 % 0.0 mm 30.0 W/m2 SCT
09:10 1.4 °C 0.7 °C 999.5 hPa WNW 16.7 km/h 16.7 km/h 95 % 0.0 mm 26.0 W/m2 SCT
09:15 1.4 °C 0.7 °C 999.9 hPa SW 13.0 km/h 13.0 km/h 95 % 0.0 mm 25.0 W/m2 SCT
09:20 1.4 °C 0.7 °C 999.9 hPa SW 20.4 km/h 20.4 km/h 95 % 0.0 mm 21.0 W/m2 SCT
09:25 1.5 °C 0.8 °C 1000.2 hPa West 20.9 km/h 20.9 km/h 95 % 0.0 mm 18.0 W/m2 SCT
09:30 1.5 °C 0.8 °C 1000.2 hPa WSW 16.1 km/h 16.1 km/h 95 % 0.0 mm 12.0 W/m2 SCT
09:35 1.6 °C 0.8 °C 1000.6 hPa WSW 18.5 km/h 18.5 km/h 95 % 0.0 mm 11.0 W/m2 SCT
09:40 1.6 °C 0.8 °C 1000.2 hPa SW 13.0 km/h 13.0 km/h 95 % 0.0 mm 14.0 W/m2 SCT
09:45 1.6 °C 0.8 °C 999.9 hPa West 11.1 km/h 11.1 km/h 95 % 0.0 mm 16.0 W/m2 SCT
09:50 1.6 °C 0.8 °C 999.9 hPa WSW 19.3 km/h 19.3 km/h 95 % 0.0 mm 26.0 W/m2 SCT
09:55 1.6 °C 0.9 °C 999.9 hPa West 19.3 km/h 19.3 km/h 95 % 0.0 mm 37.0 W/m2 SCT
10:01 1.6 °C 0.9 °C 999.9 hPa West 16.1 km/h 16.1 km/h 95 % 0.0 mm 37.0 W/m2 SCT
10:06 1.7 °C 0.9 °C 999.5 hPa WSW 11.3 km/h 11.3 km/h 95 % 0.0 mm 40.0 W/m2 SCT
10:13 1.7 °C 1.0 °C 999.9 hPa WSW 8.0 km/h 8.0 km/h 95 % 0.0 mm 47.0 W/m2 SCT
10:19 1.8 °C 1.1 °C 999.9 hPa West 9.7 km/h 9.7 km/h 95 % 0.0 mm 39.0 W/m2 SCT
10:24 1.8 °C 1.1 °C 999.5 hPa SW 16.1 km/h 16.1 km/h 95 % 0.0 mm 46.0 W/m2 SCT
10:29 1.8 °C 1.1 °C 999.9 hPa West 18.5 km/h 18.5 km/h 95 % 0.0 mm 76.0 W/m2 SCT
10:34 1.9 °C 1.2 °C 1000.2 hPa West 16.1 km/h 16.1 km/h 95 % 0.0 mm 47.0 W/m2 SCT
10:39 1.9 °C 1.2 °C 1000.2 hPa West 16.7 km/h 16.7 km/h 95 % 0.0 mm 60.0 W/m2 SCT
10:44 1.9 °C 1.2 °C 1000.6 hPa WNW 13.0 km/h 13.0 km/h 95 % 0.0 mm 56.0 W/m2 SCT
10:49 1.9 °C 1.2 °C 1000.2 hPa West 14.8 km/h 14.8 km/h 95 % 0.0 mm 60.0 W/m2 SCT
10:54 1.9 °C 1.2 °C 999.9 hPa WNW 18.5 km/h 18.5 km/h 95 % 0.0 mm 79.0 W/m2 SCT
Juneau County Weather
Compliments of Weather Underground - 2.5 mb